Time;durP1;ratioP1;P1;durP2;ratioP2;P2;SDS_P1;SDS_P2;PMS_P1;PMS_P2;Temp;Humidity;BMP_temperature;BMP_pressure;BME280_temperature;BME280_humidity;BME280_pressure;Samples;Min_cycle;Max_cycle;Signal;HPM_P1;HPM_P2
2022/09/10 00:00:21;;;;;;;8.25;3.08;;;15.00;99.90;;;;;;5058350;28;20049;-81
2022/09/10 00:02:48;;;;;;;5.50;2.85;;;14.90;99.90;;;;;;5058740;28;20044;-81
2022/09/10 00:05:14;;;;;;;5.40;2.47;;;15.00;99.90;;;;;;5058095;28;20037;-81
2022/09/10 00:07:41;;;;;;;8.27;2.85;;;14.90;99.90;;;;;;5057257;28;20032;-80
2022/09/10 00:10:07;;;;;;;3.25;1.80;;;14.90;99.90;;;;;;5040199;28;20469;-81
2022/09/10 00:12:34;;;;;;;7.22;2.10;;;14.90;99.90;;;;;;5058780;28;20066;-81
2022/09/10 00:15:01;;;;;;;6.82;2.08;;;14.90;99.90;;;;;;5058647;28;20029;-81
2022/09/10 00:17:27;;;;;;;5.68;1.85;;;14.90;99.90;;;;;;5056543;28;20394;-81
2022/09/10 00:19:54;;;;;;;4.10;1.70;;;14.80;99.90;;;;;;5058449;28;20029;-81
2022/09/10 00:22:21;;;;;;;7.35;1.90;;;14.80;99.90;;;;;;5058018;28;20029;-81
2022/09/10 00:24:47;;;;;;;3.08;1.73;;;14.70;99.90;;;;;;5058422;28;20032;-81
2022/09/10 00:27:14;;;;;;;4.35;1.70;;;14.70;99.90;;;;;;5056614;28;20033;-82
2022/09/10 00:29:40;;;;;;;3.67;1.50;;;14.80;99.90;;;;;;5058248;28;20045;-81
2022/09/10 00:32:06;;;;;;;3.75;1.75;;;14.80;99.90;;;;;;5044990;28;20025;-81
2022/09/10 00:34:33;;;;;;;5.82;1.75;;;14.80;99.90;;;;;;5012068;28;20043;-81
2022/09/10 00:36:59;;;;;;;6.97;2.50;;;14.70;99.90;;;;;;5058596;28;20100;-81
2022/09/10 00:39:25;;;;;;;7.88;1.95;;;14.80;99.90;;;;;;5057700;28;20257;-82
2022/09/10 00:41:54;;;;;;;3.67;1.60;;;14.70;99.90;;;;;;5062104;28;20040;-83
2022/09/10 00:44:38;;;;;;;2.78;1.42;;;14.80;99.90;;;;;;5045201;28;20029;-83
2022/09/10 00:47:20;;;;;;;2.85;1.23;;;14.70;99.90;;;;;;5050051;28;20036;-82
2022/09/10 00:50:01;;;;;;;5.75;1.40;;;14.70;99.90;;;;;;5056869;28;20051;-83
2022/09/10 00:52:28;;;;;;;4.97;1.30;;;14.60;99.90;;;;;;5073448;28;20037;-83
2022/09/10 00:54:55;;;;;;;1.77;0.75;;;14.60;99.90;;;;;;5073878;28;20028;-83
2022/09/10 00:57:22;;;;;;;1.40;0.70;;;14.60;99.90;;;;;;5068376;28;20040;-82
2022/09/10 00:59:54;;;;;;;1.38;0.73;;;14.60;99.90;;;;;;5065468;28;20045;-83
2022/09/10 01:02:20;;;;;;;3.25;1.00;;;14.60;99.90;;;;;;5055150;28;20033;-83
2022/09/10 01:04:48;;;;;;;2.97;1.38;;;14.60;99.90;;;;;;5037541;28;20029;-83
2022/09/10 01:07:15;;;;;;;3.33;1.00;;;14.60;99.90;;;;;;5035340;28;20489;-83
2022/09/10 01:09:42;;;;;;;4.03;0.85;;;14.60;99.90;;;;;;5036882;28;20484;-83
2022/09/10 01:12:34;;;;;;;3.92;1.48;;;14.60;99.90;;;;;;5054887;28;20029;-84
2022/09/10 01:15:16;;;;;;;2.78;0.90;;;14.60;99.90;;;;;;5036922;28;20386;-84
2022/09/10 01:17:51;;;;;;;2.22;0.60;;;14.60;99.90;;;;;;5037420;28;20082;-85
2022/09/10 01:20:52;;;;;;;6.22;1.00;;;14.60;99.90;;;;;;5037427;28;20048;-84
2022/09/10 01:23:57;;;;;;;1.60;0.57;;;14.60;99.90;;;;;;5029809;28;20435;-84
2022/09/10 01:26:50;;;;;;;2.47;0.75;;;14.50;99.90;;;;;;5054048;28;20033;-84
2022/09/10 01:29:37;;;;;;;1.95;0.70;;;14.50;99.90;;;;;;5035132;28;20055;-84
2022/09/10 01:32:14;;;;;;;2.58;0.80;;;14.50;99.90;;;;;;5057585;28;20029;-83
2022/09/10 01:35:03;;;;;;;6.05;1.05;;;14.50;99.90;;;;;;5039369;28;20041;-83
2022/09/10 01:37:30;;;;;;;3.15;1.00;;;14.50;99.90;;;;;;5052158;28;20045;-83
2022/09/10 01:39:59;;;;;;;1.95;0.98;;;14.50;99.90;;;;;;5036150;28;20053;-83
2022/09/10 01:42:27;;;;;;;2.10;0.77;;;14.50;99.90;;;;;;5035746;28;20040;-83
2022/09/10 01:44:56;;;;;;;3.47;1.10;;;14.50;99.90;;;;;;5036095;28;20037;-83
2022/09/10 01:47:50;;;;;;;3.80;1.00;;;14.50;99.90;;;;;;5034164;28;20044;-84
2022/09/10 01:50:38;;;;;;;3.40;0.68;;;14.60;99.90;;;;;;5035513;28;20054;-83
2022/09/10 01:53:16;;;;;;;1.20;0.68;;;14.60;99.90;;;;;;5036133;28;20367;-84
2022/09/10 01:56:10;;;;;;;2.25;0.70;;;14.60;99.90;;;;;;5035813;28;20048;-83
2022/09/10 01:58:40;;;;;;;1.13;0.57;;;14.60;99.90;;;;;;5033535;28;20490;-84
2022/09/10 02:01:27;;;;;;;4.35;1.05;;;14.60;99.90;;;;;;5036070;28;20056;-84
2022/09/10 02:04:02;;;;;;;2.45;0.75;;;14.60;99.90;;;;;;5016505;28;20041;-82
2022/09/10 02:06:31;;;;;;;2.10;0.73;;;14.60;99.90;;;;;;5054628;28;20494;-84
2022/09/10 02:09:00;;;;;;;1.75;0.70;;;14.60;99.90;;;;;;5037775;28;20041;-85
2022/09/10 02:11:27;;;;;;;2.00;0.95;;;14.60;99.90;;;;;;5052499;28;20051;-84
2022/09/10 02:13:57;;;;;;;1.70;0.80;;;14.60;99.90;;;;;;5052054;28;20055;-86
2022/09/10 02:16:55;;;;;;;4.15;1.17;;;14.60;99.90;;;;;;5067921;28;20055;-83
2022/09/10 02:19:21;;;;;;;2.22;0.98;;;14.60;99.90;;;;;;5047856;28;20048;-84
2022/09/10 02:21:53;;;;;;;3.95;0.88;;;14.60;99.90;;;;;;5044304;28;20048;-84
2022/09/10 02:24:20;;;;;;;3.55;0.93;;;14.60;99.90;;;;;;5038902;28;20041;-83
2022/09/10 02:26:46;;;;;;;2.85;0.77;;;14.60;99.90;;;;;;5053442;28;20032;-82
2022/09/10 02:29:14;;;;;;;4.03;1.35;;;14.70;99.90;;;;;;5033973;28;20041;-83
2022/09/10 02:31:44;;;;;;;1.92;0.80;;;14.70;99.90;;;;;;5034931;28;20048;-84
2022/09/10 02:34:14;;;;;;;2.47;0.88;;;14.70;99.90;;;;;;5039187;28;20045;-84
2022/09/10 02:36:41;;;;;;;3.60;0.98;;;14.70;99.90;;;;;;5035516;28;20040;-83
2022/09/10 02:39:07;;;;;;;1.52;0.70;;;14.70;99.90;;;;;;5051721;28;20466;-84
2022/09/10 02:41:34;;;;;;;4.32;0.93;;;14.70;99.90;;;;;;5052839;28;20056;-84
2022/09/10 02:44:02;;;;;;;3.55;1.10;;;14.70;99.90;;;;;;5018676;28;20048;-83
2022/09/10 02:46:29;;;;;;;2.60;0.88;;;14.60;99.90;;;;;;5052462;28;20059;-83
2022/09/10 02:48:55;;;;;;;1.42;0.63;;;14.60;99.90;;;;;;5051716;28;20035;-84
2022/09/10 02:51:23;;;;;;;3.45;0.95;;;14.60;99.90;;;;;;5027893;28;20445;-83
2022/09/10 02:53:50;;;;;;;2.92;1.00;;;14.60;99.90;;;;;;5041044;28;20053;-84
2022/09/10 02:56:19;;;;;;;2.95;1.00;;;14.60;99.90;;;;;;5034590;28;20051;-83
2022/09/10 02:58:46;;;;;;;2.55;0.80;;;14.60;99.90;;;;;;5032156;28;20052;-84
2022/09/10 03:01:14;;;;;;;3.13;1.00;;;14.60;99.90;;;;;;5052687;28;20112;-83
2022/09/10 03:03:41;;;;;;;4.75;0.80;;;14.60;99.90;;;;;;5035126;28;20045;-83
2022/09/10 03:06:08;;;;;;;4.15;0.88;;;14.60;99.90;;;;;;5018551;28;20037;-83
2022/09/10 03:08:35;;;;;;;4.15;0.82;;;14.60;99.90;;;;;;5050517;28;20048;-84
2022/09/10 03:11:03;;;;;;;4.40;0.90;;;14.60;99.90;;;;;;5036241;28;20048;-83
2022/09/10 03:13:33;;;;;;;3.05;1.00;;;14.60;99.90;;;;;;5052947;28;20033;-84
2022/09/10 03:16:02;;;;;;;3.63;0.90;;;14.60;99.90;;;;;;5054265;28;20048;-84
2022/09/10 03:18:32;;;;;;;1.83;0.98;;;14.60;99.90;;;;;;5035115;28;20115;-84
2022/09/10 03:21:17;;;;;;;2.15;0.95;;;14.60;99.90;;;;;;5035732;28;20386;-83
2022/09/10 03:23:45;;;;;;;4.07;1.25;;;14.70;99.90;;;;;;5035529;28;20063;-84
2022/09/10 03:26:14;;;;;;;2.30;0.80;;;14.70;99.90;;;;;;5036566;28;20037;-84
2022/09/10 03:28:42;;;;;;;3.95;0.95;;;14.70;99.90;;;;;;5054069;28;20033;-84
2022/09/10 03:31:15;;;;;;;1.88;0.80;;;14.70;99.90;;;;;;5052546;28;20041;-85
2022/09/10 03:33:45;;;;;;;4.45;1.08;;;14.70;99.90;;;;;;5039756;28;20045;-85
2022/09/10 03:36:14;;;;;;;2.90;1.05;;;14.70;99.90;;;;;;5035636;28;20037;-85
2022/09/10 03:38:42;;;;;;;;;;;14.70;99.90;;;;;;5035099;28;20060;-85
2022/09/10 03:41:09;;;;;;;3.00;1.30;;;14.70;99.90;;;;;;5052431;28;19920;-86
2022/09/10 03:43:35;;;;;;;5.35;1.00;;;14.80;99.90;;;;;;5051058;28;20201;-85
2022/09/10 03:46:06;;;;;;;4.85;0.80;;;14.80;99.90;;;;;;5034454;28;20463;-85
2022/09/10 03:48:38;;;;;;;5.13;0.98;;;14.80;99.90;;;;;;5016718;28;20257;-87
2022/09/10 03:51:05;;;;;;;3.85;1.10;;;14.80;99.90;;;;;;5034291;28;20037;-86
2022/09/10 03:53:32;;;;;;;1.48;0.90;;;14.70;99.90;;;;;;5052044;28;20033;-85
2022/09/10 03:56:00;;;;;;;1.23;0.80;;;14.70;99.90;;;;;;5034472;28;20045;-86
2022/09/10 03:58:26;;;;;;;4.40;1.00;;;14.70;99.90;;;;;;5032245;28;20041;-86
2022/09/10 04:00:52;;;;;;;3.30;1.15;;;14.80;99.90;;;;;;5034247;28;20049;-84
2022/09/10 04:03:19;;;;;;;3.10;1.08;;;14.80;99.90;;;;;;5052139;28;20056;-86
2022/09/10 04:05:45;;;;;;;3.22;0.80;;;14.70;99.90;;;;;;5035016;28;20037;-86
2022/09/10 04:08:13;;;;;;;3.88;0.93;;;14.70;99.90;;;;;;5036988;28;20052;-87
2022/09/10 04:10:42;;;;;;;3.38;1.27;;;14.80;99.90;;;;;;5033839;28;20049;-84
2022/09/10 04:13:09;;;;;;;2.70;1.15;;;14.80;99.90;;;;;;5034364;28;20052;-86
2022/09/10 04:15:37;;;;;;;1.75;1.02;;;14.80;99.90;;;;;;5034133;28;20036;-85
2022/09/10 04:18:04;;;;;;;4.38;1.02;;;14.80;99.90;;;;;;5034060;28;20409;-86
2022/09/10 04:20:32;;;;;;;3.05;1.42;;;14.80;99.90;;;;;;5038457;28;20037;-86
2022/09/10 04:23:05;;;;;;;5.80;0.90;;;14.80;99.90;;;;;;5043181;28;20394;-87
2022/09/10 04:25:34;;;;;;;2.78;1.20;;;14.80;99.90;;;;;;5039354;28;20049;-85
2022/09/10 04:28:00;;;;;;;2.13;1.00;;;14.80;99.90;;;;;;5054369;28;20374;-84
2022/09/10 04:30:27;;;;;;;5.22;1.08;;;14.80;99.90;;;;;;5045746;28;20052;-83
2022/09/10 04:32:54;;;;;;;7.30;1.50;;;14.80;99.90;;;;;;5037288;28;20498;-85
2022/09/10 04:35:20;;;;;;;1.88;1.02;;;14.80;99.90;;;;;;5050236;28;20055;-83
2022/09/10 04:37:47;;;;;;;5.97;2.15;;;14.70;99.90;;;;;;5038742;28;20051;-83
2022/09/10 04:40:14;;;;;;;3.47;1.23;;;14.80;99.90;;;;;;5021089;28;20068;-84
2022/09/10 04:42:40;;;;;;;3.90;1.27;;;14.80;99.90;;;;;;5036363;28;20041;-83
2022/09/10 04:45:07;;;;;;;4.90;1.60;;;14.80;99.90;;;;;;5036667;28;20037;-84
2022/09/10 04:47:33;;;;;;;3.45;1.33;;;14.80;99.90;;;;;;5035370;28;20045;-83
2022/09/10 04:49:59;;;;;;;4.25;1.80;;;14.70;99.90;;;;;;5037255;28;20044;-83
2022/09/10 04:52:27;;;;;;;2.60;1.23;;;14.80;99.90;;;;;;5036242;28;20060;-84
2022/09/10 04:54:54;;;;;;;5.97;1.73;;;14.80;99.90;;;;;;5036353;28;20405;-83
2022/09/10 04:57:20;;;;;;;6.18;1.42;;;14.80;99.90;;;;;;5017226;28;20046;-82
2022/09/10 04:59:47;;;;;;;3.38;1.23;;;14.80;99.90;;;;;;5037887;28;20064;-80
2022/09/10 05:02:13;;;;;;;4.82;1.70;;;14.80;99.90;;;;;;5038689;28;20064;-81
2022/09/10 05:04:40;;;;;;;3.67;1.48;;;14.70;99.90;;;;;;5036076;28;20969;-80
2022/09/10 05:07:06;;;;;;;3.83;1.90;;;14.70;99.90;;;;;;5035102;28;20505;-80
2022/09/10 05:09:32;;;;;;;4.57;1.55;;;14.80;99.90;;;;;;5036558;28;20044;-80
2022/09/10 05:12:02;;;;;;;5.32;1.77;;;14.70;99.90;;;;;;5036281;28;20045;-79
2022/09/10 05:14:29;;;;;;;5.50;1.98;;;14.70;99.90;;;;;;5054028;28;20382;-79
2022/09/10 05:16:56;;;;;;;4.40;1.70;;;14.70;99.90;;;;;;5034640;28;20048;-79
2022/09/10 05:19:22;;;;;;;4.13;1.50;;;14.70;99.90;;;;;;5035894;28;20041;-80
2022/09/10 05:21:54;;;;;;;2.83;1.45;;;14.80;99.90;;;;;;5036465;28;20048;-79
2022/09/10 05:24:20;;;;;;;2.35;1.40;;;14.70;99.90;;;;;;5054534;28;20029;-79
2022/09/10 05:26:47;;;;;;;4.07;1.50;;;14.70;99.90;;;;;;5052674;28;20033;-80
2022/09/10 05:29:13;;;;;;;2.60;1.52;;;14.70;99.90;;;;;;5054383;28;20083;-79
2022/09/10 05:31:41;;;;;;;2.55;1.33;;;14.70;99.90;;;;;;5034871;28;20041;-79
2022/09/10 05:34:09;;;;;;;3.55;1.60;;;14.70;99.90;;;;;;5036373;28;20065;-79
2022/09/10 05:36:36;;;;;;;2.72;1.15;;;14.70;99.90;;;;;;5052095;28;20033;-80
2022/09/10 05:39:03;;;;;;;3.90;1.60;;;14.70;99.90;;;;;;5035947;28;20037;-79
2022/09/10 05:41:33;;;;;;;3.37;1.90;;;14.70;99.90;;;;;;5035414;28;20045;-79
2022/09/10 05:44:00;;;;;;;2.55;1.50;;;14.70;99.90;;;;;;5035764;28;20052;-79
2022/09/10 05:46:28;;;;;;;2.25;1.30;;;14.70;99.90;;;;;;5034766;28;20052;-80
2022/09/10 05:48:57;;;;;;;6.60;1.50;;;14.70;99.90;;;;;;5035557;28;20064;-79
2022/09/10 05:51:28;;;;;;;6.93;1.45;;;14.80;99.90;;;;;;5022388;28;20037;-80
2022/09/10 05:53:56;;;;;;;5.13;1.63;;;14.80;99.90;;;;;;5035790;28;20037;-80
2022/09/10 05:56:25;;;;;;;6.18;1.90;;;14.80;99.90;;;;;;5034610;28;20041;-80
2022/09/10 05:58:51;;;;;;;3.90;1.35;;;14.80;99.90;;;;;;5034578;28;20048;-80
2022/09/10 06:01:17;;;;;;;3.80;1.35;;;14.80;99.90;;;;;;5035550;28;20048;-79
2022/09/10 06:03:43;;;;;;;4.60;1.58;;;14.80;99.90;;;;;;5053219;28;20043;-79
2022/09/10 06:06:10;;;;;;;5.40;1.60;;;14.80;99.90;;;;;;5036749;28;20040;-79
2022/09/10 06:08:41;;;;;;;7.03;2.05;;;14.80;99.90;;;;;;5035032;28;20363;-79
2022/09/10 06:11:12;;;;;;;6.47;1.77;;;14.70;99.90;;;;;;5037113;28;20043;-79
2022/09/10 06:13:43;;;;;;;2.50;1.50;;;14.70;99.90;;;;;;5036686;28;20395;-79
2022/09/10 06:16:11;;;;;;;3.40;1.50;;;14.70;99.90;;;;;;5020379;28;20037;-80
2022/09/10 06:18:39;;;;;;;3.17;1.50;;;14.70;99.90;;;;;;5035161;28;20482;-80
2022/09/10 06:21:15;;;;;;;5.35;1.80;;;14.70;99.90;;;;;;5060011;28;20055;-79
2022/09/10 06:23:44;;;;;;;6.07;1.80;;;14.80;99.90;;;;;;5037272;28;20596;-81
2022/09/10 06:26:13;;;;;;;3.55;1.45;;;14.80;99.90;;;;;;5054016;28;20033;-80
2022/09/10 06:28:40;;;;;;;2.92;1.73;;;14.80;99.90;;;;;;5033617;28;20477;-84
2022/09/10 06:31:09;;;;;;;2.10;1.27;;;14.80;99.90;;;;;;5035566;28;20040;-83
2022/09/10 06:33:36;;;;;;;5.67;1.63;;;14.90;99.90;;;;;;5052441;28;20052;-84
2022/09/10 06:36:04;;;;;;;3.03;1.48;;;14.90;99.90;;;;;;5036266;28;20275;-83
2022/09/10 06:38:35;;;;;;;3.80;1.92;;;14.90;99.90;;;;;;5036013;28;20041;-82
2022/09/10 06:41:06;;;;;;;5.70;2.25;;;14.90;99.90;;;;;;5036229;28;20056;-83
2022/09/10 06:43:45;;;;;;;3.30;1.83;;;14.90;99.90;;;;;;5035444;28;20386;-83
2022/09/10 06:46:43;;;;;;;4.80;2.20;;;14.90;99.90;;;;;;5035424;28;20044;-81
2022/09/10 06:49:14;;;;;;;5.43;1.85;;;15.00;99.90;;;;;;5037924;28;20048;-83
2022/09/10 06:51:45;;;;;;;3.40;1.50;;;15.00;99.90;;;;;;5037809;28;20486;-82
2022/09/10 06:54:13;;;;;;;3.55;1.42;;;15.10;99.90;;;;;;5042582;28;20037;-82
2022/09/10 06:56:41;;;;;;;6.47;2.08;;;15.10;99.90;;;;;;5022938;28;20052;-82
2022/09/10 06:59:08;;;;;;;5.63;1.85;;;15.20;99.90;;;;;;5062315;28;20041;-83
2022/09/10 07:01:41;;;;;;;4.18;1.98;;;15.20;99.90;;;;;;5053092;28;20039;-83
2022/09/10 07:04:08;;;;;;;3.97;1.80;;;15.20;99.90;;;;;;5050485;28;20161;-82
2022/09/10 07:06:36;;;;;;;2.97;1.70;;;15.30;99.90;;;;;;5060396;28;20037;-81
2022/09/10 07:09:14;;;;;;;4.00;1.52;;;15.40;99.90;;;;;;5035574;28;20064;-82
2022/09/10 07:12:03;;;;;;;3.22;1.70;;;15.50;99.90;;;;;;5034636;28;20045;-82
2022/09/10 07:14:32;;;;;;;5.30;1.25;;;15.50;99.90;;;;;;5033323;28;20454;-83
2022/09/10 07:17:01;;;;;;;5.57;1.60;;;15.60;99.90;;;;;;5033524;28;20048;-82
2022/09/10 07:19:30;;;;;;;5.32;1.88;;;15.60;99.90;;;;;;5033991;28;20048;-83
2022/09/10 07:21:57;;;;;;;3.10;1.23;;;15.50;99.90;;;;;;5034131;28;20041;-83
2022/09/10 07:24:23;;;;;;;3.35;1.55;;;15.60;99.90;;;;;;5034305;28;20041;-83
2022/09/10 07:26:59;;;;;;;3.22;1.50;;;15.60;99.90;;;;;;5033196;28;20394;-84
2022/09/10 07:29:28;;;;;;;7.63;1.58;;;15.50;99.90;;;;;;5034485;28;20041;-83
2022/09/10 07:31:55;;;;;;;3.60;1.45;;;15.60;99.90;;;;;;5034244;28;20045;-84
2022/09/10 07:34:23;;;;;;;9.63;1.63;;;15.60;99.90;;;;;;5020083;28;20044;-83
2022/09/10 07:36:50;;;;;;;3.75;1.50;;;15.60;99.90;;;;;;5033762;28;20040;-84
2022/09/10 07:39:17;;;;;;;3.17;1.42;;;15.60;99.90;;;;;;5037316;28;20064;-84
2022/09/10 07:41:45;;;;;;;3.63;1.80;;;15.60;99.90;;;;;;5062625;28;20036;-83
2022/09/10 07:44:14;;;;;;;3.63;1.63;;;15.60;99.90;;;;;;5034436;28;20064;-84
2022/09/10 07:46:43;;;;;;;3.13;1.40;;;15.70;99.90;;;;;;5033027;28;20041;-83
2022/09/10 07:49:12;;;;;;;4.88;1.50;;;15.60;99.90;;;;;;5034474;28;20045;-83
2022/09/10 07:51:41;;;;;;;4.07;1.63;;;15.60;99.90;;;;;;5033033;28;20500;-83
2022/09/10 07:54:08;;;;;;;6.05;1.48;;;15.60;99.90;;;;;;5033713;28;20037;-83
2022/09/10 07:56:38;;;;;;;2.88;1.50;;;15.70;99.90;;;;;;5026326;28;20037;-84
2022/09/10 07:59:07;;;;;;;4.30;1.25;;;15.60;99.90;;;;;;5029978;28;20052;-83
2022/09/10 08:01:40;;;;;;;3.28;1.08;;;15.70;99.90;;;;;;5029877;28;20048;-83
2022/09/10 08:04:06;;;;;;;1.95;1.20;;;15.70;99.90;;;;;;5064865;28;20044;-83
2022/09/10 08:06:35;;;;;;;3.63;1.50;;;15.80;99.90;;;;;;5020358;28;20056;-83
2022/09/10 08:09:07;;;;;;;4.55;1.73;;;15.80;99.90;;;;;;5037481;28;20056;-83
2022/09/10 08:11:39;;;;;;;4.97;1.17;;;15.90;99.90;;;;;;5037062;28;20493;-83
2022/09/10 08:14:05;;;;;;;5.40;1.45;;;15.90;99.90;;;;;;5037670;28;20044;-83
2022/09/10 08:16:32;;;;;;;7.35;1.75;;;16.00;99.90;;;;;;5035947;28;20057;-83
2022/09/10 08:19:04;;;;;;;5.72;1.20;;;16.00;99.90;;;;;;5036986;28;20478;-83
2022/09/10 08:21:32;;;;;;;4.05;1.70;;;16.00;99.90;;;;;;5036663;28;20052;-84
2022/09/10 08:24:01;;;;;;;4.43;1.58;;;16.10;99.90;;;;;;5021647;28;20412;-82
2022/09/10 08:26:30;;;;;;;5.60;1.38;;;16.10;99.90;;;;;;5038409;28;20055;-81
2022/09/10 08:29:01;;;;;;;4.47;1.40;;;16.10;99.90;;;;;;5040167;28;20049;-84
2022/09/10 08:31:28;;;;;;;3.75;1.70;;;16.20;99.90;;;;;;5037941;28;20286;-85
2022/09/10 08:34:08;;;;;;;7.22;1.48;;;16.20;99.90;;;;;;5057956;28;20377;-90
2022/09/10 08:36:36;;;;;;;3.45;0.95;;;16.20;99.90;;;;;;5036467;28;20033;-88
2022/09/10 08:39:02;;;;;;;6.22;0.98;;;16.20;99.90;;;;;;5037119;28;20492;-88
2022/09/10 08:41:38;;;;;;;2.47;0.95;;;16.30;99.90;;;;;;5038257;28;20041;-92
2022/09/10 08:44:09;;;;;;;3.67;0.98;;;16.50;99.90;;;;;;5043473;28;20049;-89
2022/09/10 08:46:44;;;;;;;3.05;1.00;;;16.60;99.90;;;;;;5065900;28;20044;-87
2022/09/10 08:49:22;;;;;;;1.98;0.90;;;16.90;99.90;;;;;;5065731;28;20044;-93
2022/09/10 08:51:57;;;;;;;3.58;0.77;;;16.90;99.90;;;;;;5044351;28;20402;-92
2022/09/10 08:54:32;;;;;;;4.82;0.82;;;17.00;99.90;;;;;;5044889;28;20040;-88
2022/09/10 08:57:00;;;;;;;1.52;0.68;;;17.00;99.90;;;;;;5046236;28;20044;-91
2022/09/10 08:59:33;;;;;;;4.43;1.17;;;17.10;99.90;;;;;;5060533;28;20132;-90
2022/09/10 09:02:30;;;;;;;7.28;0.95;;;17.00;99.90;;;;;;5034996;28;20048;-93
2022/09/10 09:05:19;;;;;;;4.55;1.58;;;16.90;99.90;;;;;;5038974;28;20123;-89
2022/09/10 09:07:50;;;;;;;3.53;0.52;;;17.00;99.90;;;;;;5036061;28;20485;-92
2022/09/10 09:10:39;;;;;;;2.28;0.75;;;17.00;99.90;;;;;;5022924;28;20128;-92
2022/09/10 09:13:27;;;;;;;3.85;1.17;;;17.00;99.90;;;;;;5057380;28;20040;-92
2022/09/10 09:16:32;;;;;;;4.68;1.02;;;17.00;99.90;;;;;;5048499;28;20037;-88
2022/09/10 09:19:25;;;;;;;5.22;1.08;;;17.00;99.90;;;;;;5052942;28;20067;-91
2022/09/10 09:21:55;;;;;;;6.15;0.85;;;17.00;99.90;;;;;;5038555;28;20049;-92
2022/09/10 09:24:44;;;;;;;3.30;0.90;;;17.00;99.90;;;;;;5043964;28;20048;-90
2022/09/10 09:27:16;;;;;;;2.40;0.90;;;17.00;99.90;;;;;;5050773;28;20051;-90
2022/09/10 09:29:59;;;;;;;2.22;0.88;;;17.00;99.90;;;;;;5043979;28;20379;-86
2022/09/10 09:32:27;;;;;;;3.75;1.10;;;17.00;99.90;;;;;;5036623;28;20037;-87
2022/09/10 09:35:24;;;;;;;6.37;1.27;;;17.00;99.90;;;;;;5020214;28;20044;-88
2022/09/10 09:38:26;;;;;;;9.20;1.02;;;17.10;99.90;;;;;;5034677;28;20218;-86
2022/09/10 09:41:06;;;;;;;3.50;0.75;;;17.20;99.90;;;;;;4984704;28;20060;-87
2022/09/10 09:43:53;;;;;;;4.05;1.08;;;17.40;99.90;;;;;;5038215;28;20048;-86
2022/09/10 09:46:23;;;;;;;1.80;0.60;;;17.60;99.90;;;;;;5036046;28;20462;-87
2022/09/10 09:48:58;;;;;;;2.92;1.15;;;17.80;99.90;;;;;;5036341;28;20344;-87
2022/09/10 09:51:29;;;;;;;1.98;1.13;;;18.00;99.90;;;;;;5036287;28;20044;-86
2022/09/10 09:54:06;;;;;;;2.17;1.00;;;17.80;99.90;;;;;;5036435;28;20033;-87
2022/09/10 09:56:41;;;;;;;8.27;1.10;;;17.60;99.90;;;;;;5048295;28;20055;-87
2022/09/10 09:59:22;;;;;;;4.05;0.80;;;17.20;99.90;;;;;;5055324;28;20064;-88
2022/09/10 10:01:50;;;;;;;5.60;1.77;;;17.10;99.90;;;;;;5036493;28;20041;-88
2022/09/10 10:04:25;;;;;;;6.50;1.08;;;17.10;99.90;;;;;;5037008;28;20474;-89
2022/09/10 10:07:00;;;;;;;3.40;1.00;;;17.20;99.90;;;;;;5055701;28;20089;-90
2022/09/10 10:09:42;;;;;;;4.68;1.13;;;17.20;99.90;;;;;;5071489;28;20039;-86
2022/09/10 10:12:21;;;;;;;1.60;1.13;;;17.30;99.90;;;;;;5040686;28;20045;-89
2022/09/10 10:14:48;;;;;;;2.58;1.30;;;17.30;99.90;;;;;;5050958;28;20033;-89
2022/09/10 10:17:34;;;;;;;2.65;1.15;;;17.30;99.90;;;;;;5034071;28;20371;-87
2022/09/10 10:20:04;;;;;;;3.35;1.30;;;17.20;99.90;;;;;;5034772;28;20049;-85
2022/09/10 10:22:30;;;;;;;3.63;1.23;;;17.10;99.90;;;;;;5053357;28;20488;-81
2022/09/10 10:24:59;;;;;;;2.03;0.80;;;17.10;99.90;;;;;;5043420;28;20033;-82
2022/09/10 10:27:40;;;;;;;3.40;0.77;;;17.00;99.90;;;;;;5034573;28;20037;-82
2022/09/10 10:30:15;;;;;;;4.45;0.70;;;17.00;99.90;;;;;;5052983;28;20029;-83
2022/09/10 10:32:58;;;;;;;4.47;0.90;;;17.00;99.90;;;;;;5044321;28;20064;-83
2022/09/10 10:35:47;;;;;;;2.25;0.80;;;17.10;99.90;;;;;;5053544;28;20457;-82
2022/09/10 10:38:29;;;;;;;2.75;1.60;;;17.10;99.90;;;;;;5052371;28;20040;-83
2022/09/10 10:41:10;;;;;;;3.05;1.20;;;17.20;99.90;;;;;;5015700;28;20053;-83
2022/09/10 10:43:46;;;;;;;2.60;0.90;;;17.20;99.90;;;;;;5035120;28;20382;-84
2022/09/10 10:46:20;;;;;;;3.45;0.98;;;17.20;99.90;;;;;;5052850;28;20037;-82
2022/09/10 10:48:55;;;;;;;4.45;1.10;;;17.20;99.90;;;;;;5053106;28;20036;-82
2022/09/10 10:51:35;;;;;;;3.20;0.80;;;17.10;99.90;;;;;;5054801;28;20029;-81
2022/09/10 10:54:14;;;;;;;2.60;0.85;;;16.90;99.90;;;;;;5037390;28;20044;-80
2022/09/10 10:57:18;;;;;;;5.82;1.50;;;16.90;99.90;;;;;;5047747;28;20385;-81
2022/09/10 11:00:08;;;;;;;2.70;1.23;;;16.90;99.90;;;;;;5034674;28;20284;-82
2022/09/10 11:02:53;;;;;;;2.67;1.05;;;16.90;99.90;;;;;;5056431;28;20033;-80
2022/09/10 11:05:31;;;;;;;5.07;1.30;;;16.90;99.90;;;;;;5035958;28;20505;-82
2022/09/10 11:08:08;;;;;;;3.42;1.05;;;16.80;99.90;;;;;;5052073;28;20089;-82
2022/09/10 11:10:39;;;;;;;5.80;1.38;;;16.90;99.90;;;;;;5053506;28;20025;-82
2022/09/10 11:13:24;;;;;;;2.20;0.90;;;17.00;99.90;;;;;;5029251;28;20033;-83
2022/09/10 11:15:58;;;;;;;4.75;0.70;;;17.00;99.90;;;;;;5030059;28;20037;-83
2022/09/10 11:18:32;;;;;;;3.58;1.05;;;16.90;99.90;;;;;;5052571;28;20037;-82
2022/09/10 11:21:30;;;;;;;2.90;1.05;;;17.00;99.90;;;;;;5052095;28;20501;-83
2022/09/10 11:24:23;;;;;;;4.97;1.27;;;17.00;99.90;;;;;;5034510;28;20037;-82
2022/09/10 11:27:25;;;;;;;4.82;1.30;;;17.10;99.90;;;;;;5034736;28;20116;-82
2022/09/10 11:30:05;;;;;;;3.83;1.02;;;17.10;99.90;;;;;;5051344;28;20036;-82
2022/09/10 11:33:09;;;;;;;3.20;0.97;;;17.20;99.90;;;;;;5018190;28;20044;-83
2022/09/10 11:35:44;;;;;;;3.92;1.00;;;17.20;99.90;;;;;;5046068;28;20280;-83
2022/09/10 11:38:23;;;;;;;4.00;2.00;;;17.30;99.90;;;;;;5043231;28;20044;-81
2022/09/10 11:41:08;;;;;;;6.03;1.60;;;17.40;99.90;;;;;;5050643;28;20025;-82
2022/09/10 11:44:13;;;;;;;1.40;0.70;;;17.50;99.90;;;;;;5052851;28;20029;-83
2022/09/10 11:47:01;;;;;;;1.95;0.65;;;17.70;99.90;;;;;;5035813;28;20048;-82
2022/09/10 11:49:38;;;;;;;5.68;0.60;;;18.10;99.90;;;;;;5045944;28;20037;-83
2022/09/10 11:52:04;;;;;;;2.72;0.70;;;18.40;99.90;;;;;;5029308;28;20402;-81
2022/09/10 11:54:34;;;;;;;2.17;0.40;;;18.60;99.90;;;;;;5051886;28;20040;-82
2022/09/10 11:57:22;;;;;;;2.25;0.95;;;18.30;99.90;;;;;;5034176;28;20053;-87
2022/09/10 12:00:01;;;;;;;5.82;0.80;;;18.20;99.90;;;;;;5056192;28;20053;-83
2022/09/10 12:02:37;;;;;;;4.03;0.68;;;18.10;99.90;;;;;;5059217;28;20044;-78
2022/09/10 12:05:42;;;;;;;3.45;0.63;;;17.80;99.90;;;;;;5033254;28;20041;-76
2022/09/10 12:08:37;;;;;;;3.75;0.68;;;17.60;99.90;;;;;;5051495;28;20037;-91
2022/09/10 12:11:36;;;;;;;2.80;0.63;;;17.60;99.90;;;;;;5051774;28;20366;-90
2022/09/10 12:14:21;;;;;;;5.47;0.75;;;17.80;99.90;;;;;;5033929;28;20037;-87
2022/09/10 12:17:02;;;;;;;1.95;0.60;;;17.80;99.90;;;;;;5055974;28;20033;-85
2022/09/10 12:19:36;;;;;;;2.22;1.00;;;17.70;99.90;;;;;;5051154;28;20030;-85
2022/09/10 12:22:07;;;;;;;1.67;0.60;;;17.60;99.90;;;;;;5049544;28;20053;-86
2022/09/10 12:24:38;;;;;;;2.30;0.80;;;17.70;99.90;;;;;;5064914;28;20033;-86
2022/09/10 12:27:05;;;;;;;;;;;17.70;99.90;;;;;;5056506;28;20029;-79
2022/09/10 12:29:35;;;;;;;1.52;0.50;;;17.80;99.90;;;;;;5052036;28;19915;-89
2022/09/10 12:32:08;;;;;;;;;;;17.90;99.90;;;;;;5036760;28;20047;-86
2022/09/10 12:34:35;;;;;;;6.25;0.77;;;18.10;99.90;;;;;;5034800;28;19909;-85
2022/09/10 12:37:02;;;;;;;2.15;0.57;;;18.40;99.90;;;;;;5050806;28;20040;-84
2022/09/10 12:39:28;;;;;;;2.75;0.60;;;18.50;99.90;;;;;;5014421;28;20057;-88
2022/09/10 12:41:58;;;;;;;1.80;0.60;;;18.70;99.90;;;;;;5031308;28;20478;-83
2022/09/10 12:44:24;;;;;;;1.38;0.50;;;18.80;99.90;;;;;;5031167;28;20041;-82
2022/09/10 12:47:12;;;;;;;3.90;0.82;;;18.90;99.90;;;;;;5028873;28;20335;-83
2022/09/10 12:49:56;;;;;;;4.03;0.70;;;19.10;99.90;;;;;;5026542;28;20048;-82
2022/09/10 12:52:28;;;;;;;1.52;0.60;;;19.20;99.90;;;;;;5048328;28;20048;-82
2022/09/10 12:55:17;;;;;;;4.13;0.50;;;19.20;99.90;;;;;;5047063;28;20021;-82
2022/09/10 12:57:50;;;;;;;1.65;0.70;;;18.90;99.90;;;;;;5040717;28;20034;-81
2022/09/10 13:00:20;;;;;;;1.63;0.55;;;18.70;99.90;;;;;;5052476;28;20046;-80
2022/09/10 13:02:57;;;;;;;3.08;0.40;;;18.60;99.90;;;;;;5032622;28;20065;-79
2022/09/10 13:05:35;;;;;;;4.50;1.27;;;18.70;99.90;;;;;;5038835;28;20040;-80
2022/09/10 13:08:32;;;;;;;2.45;0.60;;;18.80;99.90;;;;;;5033372;28;20028;-81
2022/09/10 13:11:19;;;;;;;1.88;0.57;;;19.10;99.90;;;;;;5053791;28;20037;-81
2022/09/10 13:13:59;;;;;;;2.92;0.47;;;19.80;99.90;;;;;;5035575;28;20056;-78
2022/09/10 13:16:26;;;;;;;1.85;0.60;;;20.10;99.90;;;;;;5053987;28;20036;-82
2022/09/10 13:19:11;;;;;;;1.23;0.40;;;20.10;99.90;;;;;;5044855;28;20470;-79